createdAt,value
2022-08-30T00:00:42.439Z,98637.28
2022-08-30T00:03:32.445Z,98629.41
2022-08-30T00:06:24.781Z,98642.03
2022-08-30T00:09:14.543Z,98639.50
2022-08-30T00:12:04.505Z,98635.22
2022-08-30T00:14:53.057Z,98635.25
2022-08-30T00:17:41.990Z,98636.78
2022-08-30T00:20:32.807Z,98629.69
2022-08-30T00:23:23.462Z,98637.75
2022-08-30T00:26:11.952Z,98637.97
2022-08-30T00:29:00.404Z,98634.00
2022-08-30T00:31:49.201Z,98632.00
2022-08-30T00:34:37.532Z,98637.00
2022-08-30T00:37:25.921Z,98641.00
2022-08-30T00:40:17.547Z,98635.75
2022-08-30T00:43:10.583Z,98640.38
2022-08-30T00:46:04.789Z,98647.13
2022-08-30T00:48:53.876Z,98629.47
2022-08-30T00:51:43.239Z,98642.88
2022-08-30T00:54:32.921Z,98644.63
2022-08-30T00:57:22.740Z,98644.22
2022-08-30T01:00:13.192Z,98640.50
2022-08-30T01:03:01.910Z,98643.19
2022-08-30T01:05:51.837Z,98637.59
2022-08-30T01:08:40.349Z,98633.19
2022-08-30T01:11:29.678Z,98633.16
2022-08-30T01:14:21.511Z,98632.72
2022-08-30T01:17:15.509Z,98623.34
2022-08-30T01:20:09.446Z,98628.94
2022-08-30T01:23:07.699Z,98627.16
2022-08-30T01:25:57.283Z,98620.09
2022-08-30T01:28:49.049Z,98625.13
2022-08-30T01:31:37.792Z,98622.38
2022-08-30T01:34:26.360Z,98619.84
2022-08-30T01:37:15.552Z,98628.19
2022-08-30T01:40:07.350Z,98618.28
2022-08-30T01:42:56.304Z,98618.81
2022-08-30T01:45:45.028Z,98621.88
2022-08-30T01:48:34.325Z,98622.63
2022-08-30T01:51:26.090Z,98621.09
2022-08-30T01:54:14.774Z,98620.34
2022-08-30T01:57:05.774Z,98621.56
2022-08-30T01:59:54.184Z,98620.75
2022-08-30T02:02:43.120Z,98622.38
2022-08-30T02:05:31.831Z,98624.75
2022-08-30T02:08:20.294Z,98621.31
2022-08-30T02:11:10.490Z,98609.47
2022-08-30T02:14:00.205Z,98613.00
2022-08-30T02:16:48.717Z,98613.22
2022-08-30T02:19:38.554Z,98607.53
2022-08-30T02:22:26.990Z,98616.84
2022-08-30T02:25:20.469Z,98609.47
2022-08-30T02:28:09.795Z,98609.47
2022-08-30T02:30:59.647Z,98617.09
2022-08-30T02:33:48.722Z,98616.09
2022-08-30T02:36:37.278Z,98610.00
2022-08-30T02:39:25.991Z,98599.56
2022-08-30T02:42:14.429Z,98603.63
2022-08-30T02:45:02.951Z,98607.09
2022-08-30T02:47:56.631Z,98610.63
2022-08-30T02:50:46.972Z,98602.53
2022-08-30T02:53:35.404Z,98606.44
2022-08-30T02:56:25.248Z,98601.81
2022-08-30T02:59:13.669Z,98603.91
2022-08-30T03:02:03.276Z,98608.22
2022-08-30T03:04:53.318Z,98605.69
2022-08-30T03:07:41.854Z,98604.94
2022-08-30T03:10:30.718Z,98602.91
2022-08-30T03:13:19.107Z,98605.41
2022-08-30T03:16:07.723Z,98608.97
2022-08-30T03:18:56.571Z,98613.03
2022-08-30T03:21:46.497Z,98614.28
2022-08-30T03:24:35.457Z,98624.56
2022-08-30T03:27:23.819Z,98619.81
2022-08-30T03:30:13.214Z,98626.84
2022-08-30T03:33:02.267Z,98629.94
2022-08-30T03:35:52.013Z,98624.53
2022-08-30T03:38:41.854Z,98621.78
2022-08-30T03:41:32.455Z,98628.38
2022-08-30T03:44:20.951Z,98627.88
2022-08-30T03:47:10.086Z,98633.13
2022-08-30T03:49:58.535Z,98632.97
2022-08-30T03:52:46.921Z,98629.63
2022-08-30T03:55:36.849Z,98634.47
2022-08-30T03:58:25.686Z,98624.91
2022-08-30T04:01:14.091Z,98634.72
2022-08-30T04:04:02.951Z,98635.09
2022-08-30T04:06:52.619Z,98637.31
2022-08-30T04:09:41.959Z,98645.94
2022-08-30T04:12:31.839Z,98642.28
2022-08-30T04:15:21.146Z,98643.47
2022-08-30T04:18:12.066Z,98648.66
2022-08-30T04:21:00.769Z,98646.38
2022-08-30T04:23:49.159Z,98645.94
2022-08-30T04:26:37.503Z,98648.88
2022-08-30T04:29:27.402Z,98653.75
2022-08-30T04:32:17.956Z,98654.00
2022-08-30T04:35:09.531Z,98663.41
2022-08-30T04:37:58.022Z,98659.91
2022-08-30T04:40:49.263Z,98657.00
2022-08-30T04:43:37.624Z,98660.59
2022-08-30T04:46:27.497Z,98664.34
2022-08-30T04:49:18.269Z,98667.16
2022-08-30T04:52:08.970Z,98671.47
2022-08-30T04:54:57.928Z,98680.03
2022-08-30T04:57:46.262Z,98668.13
2022-08-30T05:00:35.010Z,98675.06
2022-08-30T05:03:24.879Z,98681.09
2022-08-30T05:06:13.774Z,98681.19
2022-08-30T05:09:02.317Z,98676.84
2022-08-30T05:11:52.906Z,98673.84
2022-08-30T05:14:41.229Z,98682.06
2022-08-30T05:17:29.626Z,98686.09
2022-08-30T05:20:19.424Z,98675.84
2022-08-30T05:23:08.056Z,98685.13
2022-08-30T05:25:59.125Z,98687.97
2022-08-30T05:28:47.923Z,98686.97
2022-08-30T05:31:38.550Z,98685.34
2022-08-30T05:34:27.187Z,98687.72
2022-08-30T05:37:19.886Z,98686.19
2022-08-30T05:40:11.139Z,98681.72
2022-08-30T05:43:00.375Z,98682.03
2022-08-30T05:45:48.670Z,98681.03
2022-08-30T05:48:37.622Z,98689.19
2022-08-30T05:51:28.867Z,98688.94
2022-08-30T05:54:21.250Z,98693.72
2022-08-30T05:57:09.724Z,98699.81
2022-08-30T05:59:58.059Z,98694.19
2022-08-30T06:02:47.703Z,98699.03
2022-08-30T06:05:38.332Z,98694.38
2022-08-30T06:08:27.379Z,98685.66
2022-08-30T06:11:19.446Z,98701.25
2022-08-30T06:14:08.298Z,98709.44
2022-08-30T06:16:57.662Z,98700.91
2022-08-30T06:19:46.066Z,98708.28
2022-08-30T06:22:35.084Z,98709.00
2022-08-30T06:25:23.536Z,98709.38
2022-08-30T06:28:13.645Z,98712.25
2022-08-30T06:31:02.063Z,98711.81
2022-08-30T06:33:51.222Z,98708.34
2022-08-30T06:36:40.323Z,98712.00
2022-08-30T06:39:28.756Z,98710.72
2022-08-30T06:42:19.666Z,98700.19
2022-08-30T06:45:10.925Z,98714.09
2022-08-30T06:48:00.405Z,98717.59
2022-08-30T06:50:54.899Z,98718.75
2022-08-30T06:53:43.288Z,98710.56
2022-08-30T06:56:32.230Z,98720.69
2022-08-30T06:59:20.785Z,98716.38
2022-08-30T07:02:10.898Z,98726.31
2022-08-30T07:04:59.338Z,98726.94
2022-08-30T07:07:47.666Z,98728.66
2022-08-30T07:10:39.368Z,98726.53
2022-08-30T07:13:29.174Z,98737.19
2022-08-30T07:16:17.595Z,98732.34
2022-08-30T07:19:08.106Z,98739.25
2022-08-30T07:22:09.535Z,98729.38
2022-08-30T07:24:57.921Z,98747.31
2022-08-30T07:27:46.722Z,98741.47
2022-08-30T07:30:36.541Z,98742.28
2022-08-30T07:33:24.983Z,98732.44
2022-08-30T07:36:15.507Z,98736.09
2022-08-30T07:39:04.110Z,98730.69
2022-08-30T07:41:52.586Z,98729.50
2022-08-30T07:44:41.015Z,98736.72
2022-08-30T07:47:29.429Z,98737.25
2022-08-30T07:50:17.961Z,98733.34
2022-08-30T07:53:11.279Z,98730.34
2022-08-30T07:55:59.855Z,98731.13
2022-08-30T07:58:48.914Z,98727.09
2022-08-30T08:01:37.394Z,98717.31
2022-08-30T08:04:25.967Z,98729.44
2022-08-30T08:07:14.317Z,98728.94
2022-08-30T08:10:05.225Z,98730.16
2022-08-30T08:12:53.560Z,98733.50
2022-08-30T08:15:43.483Z,98740.09
2022-08-30T08:18:32.872Z,98740.22
2022-08-30T08:21:23.577Z,98737.13
2022-08-30T08:24:12.588Z,98738.88
2022-08-30T08:27:04.404Z,98735.59
2022-08-30T08:29:56.872Z,98745.22
2022-08-30T08:32:46.950Z,98740.19
2022-08-30T08:35:37.398Z,98730.59
2022-08-30T08:38:28.791Z,98749.38
2022-08-30T08:41:41.064Z,98745.22
2022-08-30T08:44:54.421Z,98751.59
2022-08-30T08:48:01.440Z,98744.34
2022-08-30T08:51:19.331Z,98747.28
2022-08-30T08:54:16.537Z,98741.00
2022-08-30T08:57:13.871Z,98742.91
2022-08-30T09:00:16.511Z,98739.13
2022-08-30T09:03:09.392Z,98741.50
2022-08-30T09:05:59.317Z,98733.50
2022-08-30T09:08:47.592Z,98744.00
2022-08-30T09:11:38.292Z,98740.34
2022-08-30T09:14:30.977Z,98745.38
2022-08-30T09:17:22.098Z,98747.38
2022-08-30T09:20:10.488Z,98745.25
2022-08-30T09:23:00.273Z,98749.84
2022-08-30T09:25:52.737Z,98738.53
2022-08-30T09:28:49.319Z,98740.63
2022-08-30T09:31:49.023Z,98743.63
2022-08-30T09:34:38.806Z,98736.53
2022-08-30T09:37:31.972Z,98731.59
2022-08-30T09:40:27.280Z,98737.81
2022-08-30T09:43:22.792Z,98739.75
2022-08-30T09:46:16.227Z,98746.94
2022-08-30T09:49:07.441Z,98740.72
2022-08-30T09:52:10.415Z,98735.00
2022-08-30T09:55:14.404Z,98732.50
2022-08-30T09:58:10.776Z,98735.78
2022-08-30T10:01:10.501Z,98725.84
2022-08-30T10:04:07.225Z,98729.28
2022-08-30T10:07:02.143Z,98723.13
2022-08-30T10:09:58.266Z,98720.06
2022-08-30T10:13:02.545Z,98722.84
2022-08-30T10:15:56.485Z,98726.25
2022-08-30T10:18:53.103Z,98713.91
2022-08-30T10:21:47.752Z,98711.63
2022-08-30T10:24:44.110Z,98722.44
2022-08-30T10:27:39.740Z,98715.84
2022-08-30T10:30:31.794Z,98709.56
2022-08-30T10:33:31.946Z,98719.03
2022-08-30T10:36:24.871Z,98705.88
2022-08-30T10:39:20.041Z,98713.81
2022-08-30T10:42:14.230Z,98699.97
2022-08-30T10:45:07.007Z,98704.97
2022-08-30T10:48:03.990Z,98703.78
2022-08-30T10:50:57.539Z,98708.63
2022-08-30T10:53:49.531Z,98704.03
2022-08-30T10:56:43.056Z,98692.44
2022-08-30T10:59:34.810Z,98695.25
2022-08-30T11:02:58.784Z,98684.44
2022-08-30T11:06:01.377Z,98685.75
2022-08-30T11:09:19.285Z,98686.81
2022-08-30T11:12:33.203Z,98682.81
2022-08-30T11:15:32.298Z,98688.97
2022-08-30T11:18:21.284Z,98677.50
2022-08-30T11:21:24.456Z,98693.44
2022-08-30T11:24:16.581Z,98694.81
2022-08-30T11:27:05.376Z,98687.56
2022-08-30T11:29:53.924Z,98693.75
2022-08-30T11:33:07.896Z,98686.63
2022-08-30T11:35:58.182Z,98698.78
2022-08-30T11:39:06.121Z,98702.16
2022-08-30T11:42:14.051Z,98692.88
2022-08-30T11:45:39.856Z,98690.47
2022-08-30T11:48:53.453Z,98679.13
2022-08-30T11:52:26.723Z,98671.25
2022-08-30T11:55:32.535Z,98676.53
2022-08-30T11:58:30.454Z,98671.44
2022-08-30T12:01:50.664Z,98665.63
2022-08-30T12:04:47.953Z,98662.97
2022-08-30T12:07:57.910Z,98666.03
2022-08-30T12:10:48.703Z,98656.63
2022-08-30T12:13:53.944Z,98650.16
2022-08-30T12:17:00.540Z,98653.63
2022-08-30T12:19:51.430Z,98636.38
2022-08-30T12:22:40.701Z,98633.84
2022-08-30T12:25:32.400Z,98635.28
2022-08-30T12:28:26.157Z,98637.06
2022-08-30T12:31:18.143Z,98633.75
2022-08-30T12:34:07.558Z,98633.59
2022-08-30T12:37:04.372Z,98623.66
2022-08-30T12:40:03.999Z,98631.75
2022-08-30T12:42:57.565Z,98628.69
2022-08-30T12:45:50.829Z,98615.53
2022-08-30T12:48:41.888Z,98609.19
2022-08-30T12:51:37.245Z,98611.53
2022-08-30T12:54:31.970Z,98610.38
2022-08-30T12:57:36.659Z,98605.81
2022-08-30T13:00:27.875Z,98606.94
2022-08-30T13:03:31.238Z,98603.81
2022-08-30T13:06:38.365Z,98596.81
2022-08-30T13:09:32.518Z,98598.97
2022-08-30T13:12:23.795Z,98587.53
2022-08-30T13:15:17.979Z,98565.84
2022-08-30T13:18:27.833Z,98580.03
2022-08-30T13:21:25.611Z,98582.53
2022-08-30T13:24:15.217Z,98586.50
2022-08-30T13:27:09.891Z,98589.53
2022-08-30T13:29:58.795Z,98589.34
2022-08-30T13:32:47.237Z,98580.94
2022-08-30T13:35:35.691Z,98577.00
2022-08-30T13:38:24.573Z,98569.06
2022-08-30T13:41:12.958Z,98570.38
2022-08-30T13:44:13.132Z,98563.09
2022-08-30T13:50:11.751Z,98571.97
2022-08-30T13:53:00.100Z,98569.16
2022-08-30T13:55:48.673Z,98565.50
2022-08-30T13:58:37.027Z,98553.94
2022-08-30T14:01:27.163Z,98563.69
2022-08-30T14:04:16.395Z,98547.50
2022-08-30T14:07:14.029Z,98555.31
2022-08-30T14:13:17.889Z,98555.72
2022-08-30T14:19:19.056Z,98541.88
2022-08-30T14:22:07.593Z,98542.16
2022-08-30T14:24:56.775Z,98546.66
2022-08-30T14:27:45.144Z,98534.09
2022-08-30T14:30:33.727Z,98549.34
2022-08-30T14:33:22.591Z,98534.19
2022-08-30T14:36:16.018Z,98539.94
2022-08-30T14:39:08.319Z,98541.19
2022-08-30T14:41:57.835Z,98527.38
2022-08-30T14:44:56.874Z,98543.00
2022-08-30T14:47:45.680Z,98534.03
2022-08-30T14:50:35.974Z,98530.56
2022-08-30T14:53:25.873Z,98533.41
2022-08-30T14:56:19.691Z,98526.78
2022-08-30T14:59:08.803Z,98531.53
2022-08-30T15:01:57.286Z,98530.44
2022-08-30T15:04:46.026Z,98525.16
2022-08-30T15:07:38.877Z,98531.06
2022-08-30T15:10:28.740Z,98535.72
2022-08-30T15:13:17.554Z,98532.91
2022-08-30T15:16:11.855Z,98529.63
2022-08-30T15:19:01.861Z,98541.25
2022-08-30T15:21:50.458Z,98534.28
2022-08-30T15:24:40.925Z,98526.09
2022-08-30T15:27:30.785Z,98527.31
2022-08-30T15:30:19.642Z,98538.47
2022-08-30T15:33:08.927Z,98530.72
2022-08-30T15:36:01.557Z,98535.63
2022-08-30T15:38:55.502Z,98528.03
2022-08-30T15:41:45.185Z,98522.44
2022-08-30T15:44:45.702Z,98519.06
2022-08-30T15:47:34.216Z,98516.59
2022-08-30T15:50:23.693Z,98527.53
2022-08-30T15:53:12.308Z,98516.84
2022-08-30T15:56:01.162Z,98523.00
2022-08-30T15:58:53.081Z,98538.06
2022-08-30T16:01:44.104Z,98533.19
2022-08-30T16:04:32.812Z,98512.00
2022-08-30T16:07:21.238Z,98510.50
2022-08-30T16:10:10.736Z,98523.03
2022-08-30T16:13:01.706Z,98506.66
2022-08-30T16:15:51.389Z,98511.38
2022-08-30T16:18:41.280Z,98509.53
2022-08-30T16:21:31.646Z,98509.34
2022-08-30T16:24:22.715Z,98509.19
2022-08-30T16:27:11.933Z,98508.59
2022-08-30T16:30:01.111Z,98503.88
2022-08-30T16:32:50.454Z,98501.44
2022-08-30T16:35:40.399Z,98508.97
2022-08-30T16:38:29.413Z,98510.06
2022-08-30T16:41:21.638Z,98506.88
2022-08-30T16:44:11.518Z,98506.13
2022-08-30T16:47:00.555Z,98502.22
2022-08-30T16:49:49.186Z,98494.13
2022-08-30T16:52:43.947Z,98508.78
2022-08-30T16:55:36.009Z,98508.59
2022-08-30T16:58:24.885Z,98514.41
2022-08-30T17:01:15.831Z,98517.19
2022-08-30T17:04:06.738Z,98512.16
2022-08-30T17:06:55.285Z,98515.47
2022-08-30T17:09:45.141Z,98518.91
2022-08-30T17:12:34.000Z,98519.03
2022-08-30T17:15:27.121Z,98518.13
2022-08-30T17:18:19.346Z,98528.81
2022-08-30T17:21:07.816Z,98539.56
2022-08-30T17:23:58.465Z,98543.09
2022-08-30T17:26:52.604Z,98542.81
2022-08-30T17:29:41.838Z,98547.75
2022-08-30T17:32:30.363Z,98546.94
2022-08-30T17:35:21.588Z,98553.38
2022-08-30T17:38:09.964Z,98556.44
2022-08-30T17:41:03.029Z,98556.59
2022-08-30T17:43:52.738Z,98564.75
2022-08-30T17:46:42.141Z,98569.56
2022-08-30T17:49:33.421Z,98569.06
2022-08-30T17:52:22.265Z,98575.59
2022-08-30T17:55:11.571Z,98577.59
2022-08-30T17:58:00.937Z,98577.31
2022-08-30T18:00:50.901Z,98585.94
2022-08-30T18:03:39.433Z,98593.44
2022-08-30T18:06:28.064Z,98594.69
2022-08-30T18:09:18.740Z,98605.56
2022-08-30T18:12:07.577Z,98601.81
2022-08-30T18:14:56.062Z,98604.63
2022-08-30T18:17:49.110Z,98604.38
2022-08-30T18:20:38.142Z,98613.53
2022-08-30T18:23:26.675Z,98615.06
2022-08-30T18:26:15.722Z,98610.47
2022-08-30T18:29:06.162Z,98607.81
2022-08-30T18:31:54.668Z,98604.50
2022-08-30T18:34:44.384Z,98611.47
2022-08-30T18:37:33.189Z,98627.25
2022-08-30T18:40:21.850Z,98620.13
2022-08-30T18:43:10.348Z,98626.69
2022-08-30T18:45:58.808Z,98624.13
2022-08-30T18:48:47.961Z,98630.78
2022-08-30T18:51:40.494Z,98623.69
2022-08-30T18:54:29.523Z,98629.50
2022-08-30T18:57:18.342Z,98636.47
2022-08-30T19:00:09.550Z,98636.78
2022-08-30T19:02:58.972Z,98638.84
2022-08-30T19:05:47.727Z,98636.81
2022-08-30T19:08:37.633Z,98641.38
2022-08-30T19:11:26.393Z,98631.59
2022-08-30T19:14:14.878Z,98624.44
2022-08-30T19:17:06.696Z,98623.81
2022-08-30T19:19:55.793Z,98624.19
2022-08-30T19:23:08.523Z,98618.69
2022-08-30T19:25:54.989Z,98612.84
2022-08-30T19:28:43.914Z,98617.34
2022-08-30T19:31:32.420Z,98620.59
2022-08-30T19:34:21.413Z,98620.81
2022-08-30T19:40:22.610Z,98625.75
2022-08-30T19:43:12.614Z,98630.19
2022-08-30T19:46:01.493Z,98626.56
2022-08-30T19:48:49.846Z,98628.13
2022-08-30T19:51:38.490Z,98632.06
2022-08-30T19:54:27.216Z,98631.63
2022-08-30T19:57:19.119Z,98627.34
2022-08-30T20:00:12.096Z,98634.44
2022-08-30T20:03:05.834Z,98632.38
2022-08-30T20:05:55.173Z,98626.63
2022-08-30T20:08:43.873Z,98628.22
2022-08-30T20:11:35.134Z,98628.16
2022-08-30T20:14:23.502Z,98627.22
2022-08-30T20:17:13.304Z,98631.31
2022-08-30T20:20:03.034Z,98632.44
2022-08-30T20:22:54.261Z,98619.75
2022-08-30T20:25:43.045Z,98620.44
2022-08-30T20:28:31.586Z,98616.38
2022-08-30T20:31:20.122Z,98611.00
2022-08-30T20:34:09.945Z,98618.94
2022-08-30T20:36:59.306Z,98620.47
2022-08-30T20:39:47.685Z,98628.50
2022-08-30T20:42:36.494Z,98625.81
2022-08-30T20:45:24.830Z,98621.28
2022-08-30T20:48:19.895Z,98623.31
2022-08-30T20:51:11.396Z,98624.91
2022-08-30T20:53:59.916Z,98619.31
2022-08-30T20:56:48.273Z,98626.53
2022-08-30T20:59:36.772Z,98623.91
2022-08-30T21:02:25.430Z,98626.63
2022-08-30T21:05:15.461Z,98620.06
2022-08-30T21:08:09.999Z,98629.22
2022-08-30T21:10:58.705Z,98633.34
2022-08-30T21:13:48.497Z,98636.88
2022-08-30T21:16:37.478Z,98628.81
2022-08-30T21:19:26.425Z,98632.25
2022-08-30T21:22:14.900Z,98628.06
2022-08-30T21:25:04.847Z,98638.25
2022-08-30T21:27:56.048Z,98629.66
2022-08-30T21:30:44.696Z,98639.91
2022-08-30T21:33:36.157Z,98635.38
2022-08-30T21:36:46.024Z,98633.00
2022-08-30T21:39:36.363Z,98624.75
2022-08-30T21:42:26.081Z,98632.44
2022-08-30T21:45:15.355Z,98636.97
2022-08-30T21:48:04.329Z,98639.84
2022-08-30T21:50:55.340Z,98639.22
2022-08-30T21:53:44.059Z,98648.50
2022-08-30T21:56:33.153Z,98648.78
2022-08-30T21:59:23.409Z,98652.13
2022-08-30T22:02:12.303Z,98652.34
2022-08-30T22:05:00.784Z,98651.72
2022-08-30T22:07:49.521Z,98651.72
2022-08-30T22:10:38.318Z,98645.06
2022-08-30T22:13:27.898Z,98651.38
2022-08-30T22:16:19.667Z,98642.97
2022-08-30T22:19:08.783Z,98645.63
2022-08-30T22:22:00.687Z,98636.63
2022-08-30T22:24:50.156Z,98642.97
2022-08-30T22:27:38.899Z,98644.34
2022-08-30T22:30:27.968Z,98641.47
2022-08-30T22:33:19.777Z,98639.50
2022-08-30T22:36:10.379Z,98644.00
2022-08-30T22:39:00.196Z,98644.47
2022-08-30T22:41:48.926Z,98649.53
2022-08-30T22:44:37.718Z,98648.03
2022-08-30T22:47:26.479Z,98643.19
2022-08-30T22:50:16.901Z,98641.75
2022-08-30T22:53:06.598Z,98638.66
2022-08-30T22:55:55.373Z,98637.88
2022-08-30T22:58:47.554Z,98633.81
2022-08-30T23:01:39.552Z,98641.75
2022-08-30T23:04:28.320Z,98646.16
2022-08-30T23:07:18.493Z,98651.00
2022-08-30T23:10:08.637Z,98645.91
2022-08-30T23:12:58.838Z,98641.53
2022-08-30T23:15:47.188Z,98647.03
2022-08-30T23:18:38.445Z,98650.38
2022-08-30T23:21:28.981Z,98648.16
2022-08-30T23:24:36.467Z,98637.91
2022-08-30T23:27:43.204Z,98649.78
2022-08-30T23:30:49.532Z,98641.16
2022-08-30T23:33:55.170Z,98638.16
2022-08-30T23:37:00.973Z,98642.44
2022-08-30T23:40:08.315Z,98636.31
2022-08-30T23:43:14.032Z,98643.75
2022-08-30T23:46:20.265Z,98630.25
2022-08-30T23:49:25.983Z,98637.97
2022-08-30T23:52:31.648Z,98631.38
2022-08-30T23:55:39.130Z,98633.97
2022-08-30T23:58:45.011Z,98629.22
